sensor_id;sensor_type;location;lat;lon;timestamp;temperature;humidity
18434;DHT22;9344;52.294;13.626;2022-08-19T00:02:18;24.00;1.00
18434;DHT22;9344;52.294;13.626;2022-08-19T00:04:44;24.00;1.00
18434;DHT22;9344;52.294;13.626;2022-08-19T00:07:13;23.90;1.00
18434;DHT22;9344;52.294;13.626;2022-08-19T00:09:39;23.80;1.00
18434;DHT22;9344;52.294;13.626;2022-08-19T00:12:06;23.70;44.50
18434;DHT22;9344;52.294;13.626;2022-08-19T00:14:34;23.60;18.60
18434;DHT22;9344;52.294;13.626;2022-08-19T00:17:00;23.60;33.00
18434;DHT22;9344;52.294;13.626;2022-08-19T00:19:29;23.50;56.00
18434;DHT22;9344;52.294;13.626;2022-08-19T00:21:56;23.50;45.20
18434;DHT22;9344;52.294;13.626;2022-08-19T00:24:22;23.40;54.10
18434;DHT22;9344;52.294;13.626;2022-08-19T00:26:49;23.30;43.80
18434;DHT22;9344;52.294;13.626;2022-08-19T00:29:18;23.30;70.50
18434;DHT22;9344;52.294;13.626;2022-08-19T00:31:45;23.30;99.90
18434;DHT22;9344;52.294;13.626;2022-08-19T00:34:13;23.30;95.70
18434;DHT22;9344;52.294;13.626;2022-08-19T00:36:42;23.30;80.40
18434;DHT22;9344;52.294;13.626;2022-08-19T00:39:10;23.20;99.90
18434;DHT22;9344;52.294;13.626;2022-08-19T00:41:38;23.10;99.90
18434;DHT22;9344;52.294;13.626;2022-08-19T00:44:08;22.90;99.90
18434;DHT22;9344;52.294;13.626;2022-08-19T00:46:36;22.80;99.90
18434;DHT22;9344;52.294;13.626;2022-08-19T00:49:09;22.70;99.90
18434;DHT22;9344;52.294;13.626;2022-08-19T00:51:36;22.70;99.90
18434;DHT22;9344;52.294;13.626;2022-08-19T00:54:04;22.70;99.90
18434;DHT22;9344;52.294;13.626;2022-08-19T00:56:31;22.60;99.90
18434;DHT22;9344;52.294;13.626;2022-08-19T00:58:59;22.60;99.90
18434;DHT22;9344;52.294;13.626;2022-08-19T01:01:27;22.70;99.90
18434;DHT22;9344;52.294;13.626;2022-08-19T01:03:53;22.70;99.90
18434;DHT22;9344;52.294;13.626;2022-08-19T01:06:20;22.80;99.90
18434;DHT22;9344;52.294;13.626;2022-08-19T01:08:47;22.80;99.90
18434;DHT22;9344;52.294;13.626;2022-08-19T01:11:15;22.70;99.90
18434;DHT22;9344;52.294;13.626;2022-08-19T01:13:42;22.70;99.90
18434;DHT22;9344;52.294;13.626;2022-08-19T01:16:10;22.70;99.90
18434;DHT22;9344;52.294;13.626;2022-08-19T01:18:39;22.70;99.90
18434;DHT22;9344;52.294;13.626;2022-08-19T01:21:11;22.70;99.90
18434;DHT22;9344;52.294;13.626;2022-08-19T01:23:42;22.60;99.90
18434;DHT22;9344;52.294;13.626;2022-08-19T01:26:11;22.60;99.90
18434;DHT22;9344;52.294;13.626;2022-08-19T01:28:38;22.70;99.90
18434;DHT22;9344;52.294;13.626;2022-08-19T01:31:06;22.80;99.90
18434;DHT22;9344;52.294;13.626;2022-08-19T01:33:33;22.80;99.90
18434;DHT22;9344;52.294;13.626;2022-08-19T01:36:07;22.90;99.90
18434;DHT22;9344;52.294;13.626;2022-08-19T01:38:37;22.90;99.90
18434;DHT22;9344;52.294;13.626;2022-08-19T01:41:05;23.00;99.90
18434;DHT22;9344;52.294;13.626;2022-08-19T01:43:32;23.00;99.90
18434;DHT22;9344;52.294;13.626;2022-08-19T01:45:59;23.00;99.90
18434;DHT22;9344;52.294;13.626;2022-08-19T01:48:26;23.00;99.90
18434;DHT22;9344;52.294;13.626;2022-08-19T01:50:54;23.00;99.90
18434;DHT22;9344;52.294;13.626;2022-08-19T01:53:21;23.00;99.90
18434;DHT22;9344;52.294;13.626;2022-08-19T01:55:47;23.00;99.90
18434;DHT22;9344;52.294;13.626;2022-08-19T01:58:18;23.10;99.90
18434;DHT22;9344;52.294;13.626;2022-08-19T02:00:47;23.10;99.90
18434;DHT22;9344;52.294;13.626;2022-08-19T02:03:14;23.10;99.90
18434;DHT22;9344;52.294;13.626;2022-08-19T02:05:41;23.10;99.90
18434;DHT22;9344;52.294;13.626;2022-08-19T02:08:09;23.00;99.90
18434;DHT22;9344;52.294;13.626;2022-08-19T02:10:40;23.00;99.90
18434;DHT22;9344;52.294;13.626;2022-08-19T02:13:07;23.00;99.90
18434;DHT22;9344;52.294;13.626;2022-08-19T02:15:34;23.00;99.90
18434;DHT22;9344;52.294;13.626;2022-08-19T02:18:01;22.80;99.90
18434;DHT22;9344;52.294;13.626;2022-08-19T02:20:28;22.80;99.90
18434;DHT22;9344;52.294;13.626;2022-08-19T02:22:54;22.80;99.90
18434;DHT22;9344;52.294;13.626;2022-08-19T02:25:21;22.80;99.90
18434;DHT22;9344;52.294;13.626;2022-08-19T02:27:47;22.70;99.90
18434;DHT22;9344;52.294;13.626;2022-08-19T02:30:15;21.70;99.90
18434;DHT22;9344;52.294;13.626;2022-08-19T02:32:43;22.40;99.90
18434;DHT22;9344;52.294;13.626;2022-08-19T02:35:10;22.50;99.90
18434;DHT22;9344;52.294;13.626;2022-08-19T02:37:37;22.40;99.90
18434;DHT22;9344;52.294;13.626;2022-08-19T02:40:21;22.30;99.90
18434;DHT22;9344;52.294;13.626;2022-08-19T02:42:48;22.40;99.90
18434;DHT22;9344;52.294;13.626;2022-08-19T02:45:14;22.40;99.90
18434;DHT22;9344;52.294;13.626;2022-08-19T02:47:42;22.40;99.90
18434;DHT22;9344;52.294;13.626;2022-08-19T02:50:09;22.50;99.90
18434;DHT22;9344;52.294;13.626;2022-08-19T02:52:36;22.40;99.90
18434;DHT22;9344;52.294;13.626;2022-08-19T02:55:04;22.40;99.90
18434;DHT22;9344;52.294;13.626;2022-08-19T02:57:31;22.40;99.90
18434;DHT22;9344;52.294;13.626;2022-08-19T02:59:58;22.40;99.90
18434;DHT22;9344;52.294;13.626;2022-08-19T03:02:25;22.40;99.90
18434;DHT22;9344;52.294;13.626;2022-08-19T03:04:52;22.40;99.90
18434;DHT22;9344;52.294;13.626;2022-08-19T03:07:19;22.50;99.90
18434;DHT22;9344;52.294;13.626;2022-08-19T03:09:45;22.40;99.90
18434;DHT22;9344;52.294;13.626;2022-08-19T03:12:12;22.40;99.90
18434;DHT22;9344;52.294;13.626;2022-08-19T03:14:39;22.30;99.90
18434;DHT22;9344;52.294;13.626;2022-08-19T03:17:05;22.20;99.90
18434;DHT22;9344;52.294;13.626;2022-08-19T03:19:33;22.30;99.90
18434;DHT22;9344;52.294;13.626;2022-08-19T03:22:01;22.30;99.90
18434;DHT22;9344;52.294;13.626;2022-08-19T03:24:27;22.30;99.90
18434;DHT22;9344;52.294;13.626;2022-08-19T03:26:55;22.30;99.90
18434;DHT22;9344;52.294;13.626;2022-08-19T03:29:23;22.10;99.90
18434;DHT22;9344;52.294;13.626;2022-08-19T03:31:49;22.00;99.90
18434;DHT22;9344;52.294;13.626;2022-08-19T03:34:19;22.00;99.90
18434;DHT22;9344;52.294;13.626;2022-08-19T03:36:46;22.10;99.90
18434;DHT22;9344;52.294;13.626;2022-08-19T03:39:15;22.10;99.90
18434;DHT22;9344;52.294;13.626;2022-08-19T03:41:44;22.20;99.90
18434;DHT22;9344;52.294;13.626;2022-08-19T03:44:11;22.20;99.90
18434;DHT22;9344;52.294;13.626;2022-08-19T03:46:38;22.20;99.90
18434;DHT22;9344;52.294;13.626;2022-08-19T03:49:05;22.20;99.90
18434;DHT22;9344;52.294;13.626;2022-08-19T03:51:34;22.30;99.90
18434;DHT22;9344;52.294;13.626;2022-08-19T03:54:03;22.30;99.90
18434;DHT22;9344;52.294;13.626;2022-08-19T03:56:33;22.20;99.90
18434;DHT22;9344;52.294;13.626;2022-08-19T03:59:00;22.30;99.90
18434;DHT22;9344;52.294;13.626;2022-08-19T04:01:28;22.30;99.90
18434;DHT22;9344;52.294;13.626;2022-08-19T04:03:56;22.30;99.90
18434;DHT22;9344;52.294;13.626;2022-08-19T04:06:25;22.30;99.90
18434;DHT22;9344;52.294;13.626;2022-08-19T04:08:53;22.30;99.90
18434;DHT22;9344;52.294;13.626;2022-08-19T04:11:24;22.30;99.90
18434;DHT22;9344;52.294;13.626;2022-08-19T04:13:53;22.30;99.90
18434;DHT22;9344;52.294;13.626;2022-08-19T04:16:21;22.20;99.90
18434;DHT22;9344;52.294;13.626;2022-08-19T04:18:48;22.20;99.90
18434;DHT22;9344;52.294;13.626;2022-08-19T04:21:17;22.00;99.90
18434;DHT22;9344;52.294;13.626;2022-08-19T04:23:44;22.00;99.90
18434;DHT22;9344;52.294;13.626;2022-08-19T04:26:13;22.10;99.90
18434;DHT22;9344;52.294;13.626;2022-08-19T04:28:39;22.10;99.90
18434;DHT22;9344;52.294;13.626;2022-08-19T04:31:13;22.10;99.90
18434;DHT22;9344;52.294;13.626;2022-08-19T04:33:39;22.10;99.90
18434;DHT22;9344;52.294;13.626;2022-08-19T04:36:06;22.10;99.90
18434;DHT22;9344;52.294;13.626;2022-08-19T04:38:35;22.10;99.90
18434;DHT22;9344;52.294;13.626;2022-08-19T04:41:03;22.10;99.90
18434;DHT22;9344;52.294;13.626;2022-08-19T04:43:47;22.10;99.90
18434;DHT22;9344;52.294;13.626;2022-08-19T04:46:17;22.00;99.90
18434;DHT22;9344;52.294;13.626;2022-08-19T04:48:45;22.10;99.90
18434;DHT22;9344;52.294;13.626;2022-08-19T04:51:12;22.10;99.90
18434;DHT22;9344;52.294;13.626;2022-08-19T04:53:40;22.10;99.90
18434;DHT22;9344;52.294;13.626;2022-08-19T04:56:09;22.10;99.90
18434;DHT22;9344;52.294;13.626;2022-08-19T04:58:38;22.10;99.90
18434;DHT22;9344;52.294;13.626;2022-08-19T05:01:06;22.10;99.90
18434;DHT22;9344;52.294;13.626;2022-08-19T05:03:35;22.10;99.90
18434;DHT22;9344;52.294;13.626;2022-08-19T05:06:05;22.10;99.90
18434;DHT22;9344;52.294;13.626;2022-08-19T05:08:33;22.00;99.90
18434;DHT22;9344;52.294;13.626;2022-08-19T05:11:00;22.00;99.90
18434;DHT22;9344;52.294;13.626;2022-08-19T05:13:27;22.00;99.90
18434;DHT22;9344;52.294;13.626;2022-08-19T05:15:54;21.90;99.90
18434;DHT22;9344;52.294;13.626;2022-08-19T05:18:21;22.00;99.90
18434;DHT22;9344;52.294;13.626;2022-08-19T05:21:07;21.90;99.90
18434;DHT22;9344;52.294;13.626;2022-08-19T05:23:52;21.90;99.90
18434;DHT22;9344;52.294;13.626;2022-08-19T05:26:18;21.90;99.90
18434;DHT22;9344;52.294;13.626;2022-08-19T05:28:45;22.10;99.90
18434;DHT22;9344;52.294;13.626;2022-08-19T05:31:11;22.00;99.90
18434;DHT22;9344;52.294;13.626;2022-08-19T05:33:38;22.00;99.90
18434;DHT22;9344;52.294;13.626;2022-08-19T05:36:07;22.00;99.90
18434;DHT22;9344;52.294;13.626;2022-08-19T05:38:34;22.00;99.90
18434;DHT22;9344;52.294;13.626;2022-08-19T05:41:00;22.00;99.90
18434;DHT22;9344;52.294;13.626;2022-08-19T05:43:27;22.10;99.90
18434;DHT22;9344;52.294;13.626;2022-08-19T05:45:54;22.10;99.90
18434;DHT22;9344;52.294;13.626;2022-08-19T05:48:20;22.20;99.90
18434;DHT22;9344;52.294;13.626;2022-08-19T05:50:47;22.20;99.90
18434;DHT22;9344;52.294;13.626;2022-08-19T05:53:16;22.30;99.90
18434;DHT22;9344;52.294;13.626;2022-08-19T05:55:43;22.30;99.90
18434;DHT22;9344;52.294;13.626;2022-08-19T05:58:10;24.10;99.90
18434;DHT22;9344;52.294;13.626;2022-08-19T06:00:37;22.40;99.90
18434;DHT22;9344;52.294;13.626;2022-08-19T06:03:05;22.50;99.90
18434;DHT22;9344;52.294;13.626;2022-08-19T06:05:32;22.60;99.90
18434;DHT22;9344;52.294;13.626;2022-08-19T06:07:58;22.60;99.90
18434;DHT22;9344;52.294;13.626;2022-08-19T06:10:26;22.60;99.90
18434;DHT22;9344;52.294;13.626;2022-08-19T06:12:53;22.70;99.90
18434;DHT22;9344;52.294;13.626;2022-08-19T06:15:21;22.80;99.90
18434;DHT22;9344;52.294;13.626;2022-08-19T06:17:50;22.80;99.90
18434;DHT22;9344;52.294;13.626;2022-08-19T06:20:17;22.80;99.90
18434;DHT22;9344;52.294;13.626;2022-08-19T06:22:46;22.90;99.90
18434;DHT22;9344;52.294;13.626;2022-08-19T06:25:14;22.90;99.90
18434;DHT22;9344;52.294;13.626;2022-08-19T06:27:42;22.70;99.90
18434;DHT22;9344;52.294;13.626;2022-08-19T06:30:09;22.70;99.90
18434;DHT22;9344;52.294;13.626;2022-08-19T06:32:37;22.70;99.90
18434;DHT22;9344;52.294;13.626;2022-08-19T06:35:05;22.70;99.90
18434;DHT22;9344;52.294;13.626;2022-08-19T06:37:32;22.60;99.90
18434;DHT22;9344;52.294;13.626;2022-08-19T06:39:58;22.60;99.90
18434;DHT22;9344;52.294;13.626;2022-08-19T06:42:25;22.70;99.90
18434;DHT22;9344;52.294;13.626;2022-08-19T06:44:52;22.80;99.90
18434;DHT22;9344;52.294;13.626;2022-08-19T06:47:21;23.00;99.90
18434;DHT22;9344;52.294;13.626;2022-08-19T06:49:47;23.00;99.90
18434;DHT22;9344;52.294;13.626;2022-08-19T06:52:14;23.10;99.90
18434;DHT22;9344;52.294;13.626;2022-08-19T06:54:41;23.00;99.90
18434;DHT22;9344;52.294;13.626;2022-08-19T06:57:08;23.10;99.90
18434;DHT22;9344;52.294;13.626;2022-08-19T06:59:38;23.10;99.90
18434;DHT22;9344;52.294;13.626;2022-08-19T07:02:07;23.20;99.90
18434;DHT22;9344;52.294;13.626;2022-08-19T07:04:35;23.20;99.90
18434;DHT22;9344;52.294;13.626;2022-08-19T07:07:05;23.30;99.90
18434;DHT22;9344;52.294;13.626;2022-08-19T07:09:33;23.30;99.90
18434;DHT22;9344;52.294;13.626;2022-08-19T07:12:03;23.30;99.90
18434;DHT22;9344;52.294;13.626;2022-08-19T07:14:30;23.30;99.90
18434;DHT22;9344;52.294;13.626;2022-08-19T07:16:57;23.40;99.90
18434;DHT22;9344;52.294;13.626;2022-08-19T07:19:26;23.50;99.90
18434;DHT22;9344;52.294;13.626;2022-08-19T07:21:53;23.40;99.90
18434;DHT22;9344;52.294;13.626;2022-08-19T07:24:22;23.50;99.90
18434;DHT22;9344;52.294;13.626;2022-08-19T07:26:50;23.60;99.90
18434;DHT22;9344;52.294;13.626;2022-08-19T07:29:18;23.70;99.90
18434;DHT22;9344;52.294;13.626;2022-08-19T07:31:48;23.80;99.90
18434;DHT22;9344;52.294;13.626;2022-08-19T07:34:15;23.80;99.90
18434;DHT22;9344;52.294;13.626;2022-08-19T07:36:43;23.90;99.90
18434;DHT22;9344;52.294;13.626;2022-08-19T07:39:13;23.90;99.90
18434;DHT22;9344;52.294;13.626;2022-08-19T07:41:40;23.90;99.90
18434;DHT22;9344;52.294;13.626;2022-08-19T07:44:08;24.10;99.90
18434;DHT22;9344;52.294;13.626;2022-08-19T07:46:37;24.20;99.90
18434;DHT22;9344;52.294;13.626;2022-08-19T07:49:06;24.30;99.90
18434;DHT22;9344;52.294;13.626;2022-08-19T07:51:33;24.30;99.90
18434;DHT22;9344;52.294;13.626;2022-08-19T07:54:02;24.30;99.90
18434;DHT22;9344;52.294;13.626;2022-08-19T07:56:29;24.40;99.90
18434;DHT22;9344;52.294;13.626;2022-08-19T07:58:55;24.40;99.90
18434;DHT22;9344;52.294;13.626;2022-08-19T08:01:24;24.40;99.90
18434;DHT22;9344;52.294;13.626;2022-08-19T08:03:53;24.40;99.90
18434;DHT22;9344;52.294;13.626;2022-08-19T08:06:38;24.50;99.90
18434;DHT22;9344;52.294;13.626;2022-08-19T08:09:26;24.60;99.90
18434;DHT22;9344;52.294;13.626;2022-08-19T08:11:55;24.60;93.40
18434;DHT22;9344;52.294;13.626;2022-08-19T08:14:25;24.50;44.60
18434;DHT22;9344;52.294;13.626;2022-08-19T08:16:52;24.50;99.90
18434;DHT22;9344;52.294;13.626;2022-08-19T08:19:20;24.60;58.00
18434;DHT22;9344;52.294;13.626;2022-08-19T08:21:48;24.70;70.60
18434;DHT22;9344;52.294;13.626;2022-08-19T08:24:15;24.60;83.80
18434;DHT22;9344;52.294;13.626;2022-08-19T08:26:44;24.60;57.50
18434;DHT22;9344;52.294;13.626;2022-08-19T08:29:11;24.60;58.00
18434;DHT22;9344;52.294;13.626;2022-08-19T08:31:39;24.50;85.50
18434;DHT22;9344;52.294;13.626;2022-08-19T08:34:06;24.60;99.90
18434;DHT22;9344;52.294;13.626;2022-08-19T08:36:36;24.50;88.70
18434;DHT22;9344;52.294;13.626;2022-08-19T08:39:07;24.50;54.20
18434;DHT22;9344;52.294;13.626;2022-08-19T08:41:37;24.50;99.90
18434;DHT22;9344;52.294;13.626;2022-08-19T08:44:14;24.50;66.90
18434;DHT22;9344;52.294;13.626;2022-08-19T08:46:45;24.60;99.90
18434;DHT22;9344;52.294;13.626;2022-08-19T08:49:23;24.60;99.90
18434;DHT22;9344;52.294;13.626;2022-08-19T08:51:57;24.70;84.20
18434;DHT22;9344;52.294;13.626;2022-08-19T08:54:30;24.60;32.90
18434;DHT22;9344;52.294;13.626;2022-08-19T08:56:58;24.50;52.60
18434;DHT22;9344;52.294;13.626;2022-08-19T08:59:30;24.40;90.40
18434;DHT22;9344;52.294;13.626;2022-08-19T09:01:59;24.40;96.80
18434;DHT22;9344;52.294;13.626;2022-08-19T09:04:26;24.40;98.20
18434;DHT22;9344;52.294;13.626;2022-08-19T09:07:09;24.50;79.80
18434;DHT22;9344;52.294;13.626;2022-08-19T09:09:43;24.50;61.60
18434;DHT22;9344;52.294;13.626;2022-08-19T09:12:17;24.50;82.20
18434;DHT22;9344;52.294;13.626;2022-08-19T09:14:52;24.50;96.90
18434;DHT22;9344;52.294;13.626;2022-08-19T09:17:22;24.60;44.50
18434;DHT22;9344;52.294;13.626;2022-08-19T09:19:57;24.60;41.20
18434;DHT22;9344;52.294;13.626;2022-08-19T09:22:26;24.60;28.70
18434;DHT22;9344;52.294;13.626;2022-08-19T09:24:53;24.70;48.40
18434;DHT22;9344;52.294;13.626;2022-08-19T09:27:20;24.70;41.20
18434;DHT22;9344;52.294;13.626;2022-08-19T09:29:50;24.80;24.70
18434;DHT22;9344;52.294;13.626;2022-08-19T09:32:17;24.90;10.10
18434;DHT22;9344;52.294;13.626;2022-08-19T09:34:43;24.90;1.00
18434;DHT22;9344;52.294;13.626;2022-08-19T09:37:10;24.90;28.00
18434;DHT22;9344;52.294;13.626;2022-08-19T09:39:37;24.90;1.00
18434;DHT22;9344;52.294;13.626;2022-08-19T09:42:04;25.00;1.00
18434;DHT22;9344;52.294;13.626;2022-08-19T09:44:34;25.10;1.00
18434;DHT22;9344;52.294;13.626;2022-08-19T09:47:02;25.20;1.00
18434;DHT22;9344;52.294;13.626;2022-08-19T09:49:30;25.30;1.00
18434;DHT22;9344;52.294;13.626;2022-08-19T09:51:56;25.20;1.00
18434;DHT22;9344;52.294;13.626;2022-08-19T09:54:23;25.30;1.00
18434;DHT22;9344;52.294;13.626;2022-08-19T09:56:50;25.30;1.00
18434;DHT22;9344;52.294;13.626;2022-08-19T09:59:17;25.20;1.00
18434;DHT22;9344;52.294;13.626;2022-08-19T10:01:44;25.10;1.00
18434;DHT22;9344;52.294;13.626;2022-08-19T10:04:12;25.10;1.00
18434;DHT22;9344;52.294;13.626;2022-08-19T10:06:39;25.20;1.00
18434;DHT22;9344;52.294;13.626;2022-08-19T10:09:08;25.20;1.00
18434;DHT22;9344;52.294;13.626;2022-08-19T10:11:36;25.20;1.00
18434;DHT22;9344;52.294;13.626;2022-08-19T10:14:03;25.10;1.00
18434;DHT22;9344;52.294;13.626;2022-08-19T10:16:31;25.20;1.00
18434;DHT22;9344;52.294;13.626;2022-08-19T10:18:58;25.10;1.00
18434;DHT22;9344;52.294;13.626;2022-08-19T10:21:29;25.20;1.00
18434;DHT22;9344;52.294;13.626;2022-08-19T10:23:57;25.10;1.00
18434;DHT22;9344;52.294;13.626;2022-08-19T10:26:26;25.10;1.00
18434;DHT22;9344;52.294;13.626;2022-08-19T10:28:53;25.10;13.90
18434;DHT22;9344;52.294;13.626;2022-08-19T10:31:22;25.20;31.80
18434;DHT22;9344;52.294;13.626;2022-08-19T10:33:50;25.00;42.40
18434;DHT22;9344;52.294;13.626;2022-08-19T10:36:23;24.80;92.90
18434;DHT22;9344;52.294;13.626;2022-08-19T10:38:53;24.70;97.80
18434;DHT22;9344;52.294;13.626;2022-08-19T10:41:24;24.60;99.90
18434;DHT22;9344;52.294;13.626;2022-08-19T10:43:51;24.70;99.90
18434;DHT22;9344;52.294;13.626;2022-08-19T10:46:21;24.30;99.90
18434;DHT22;9344;52.294;13.626;2022-08-19T10:48:48;24.10;99.90
18434;DHT22;9344;52.294;13.626;2022-08-19T10:51:15;24.00;99.90
18434;DHT22;9344;52.294;13.626;2022-08-19T10:54:06;23.90;99.90
18434;DHT22;9344;52.294;13.626;2022-08-19T10:56:34;23.90;99.90
18434;DHT22;9344;52.294;13.626;2022-08-19T10:59:19;23.60;99.90
18434;DHT22;9344;52.294;13.626;2022-08-19T11:01:47;23.60;99.90
18434;DHT22;9344;52.294;13.626;2022-08-19T11:04:14;23.60;99.90
18434;DHT22;9344;52.294;13.626;2022-08-19T11:06:43;23.50;99.90
18434;DHT22;9344;52.294;13.626;2022-08-19T11:09:14;23.60;99.90
18434;DHT22;9344;52.294;13.626;2022-08-19T11:11:41;23.60;99.90
18434;DHT22;9344;52.294;13.626;2022-08-19T11:14:08;23.70;99.90
18434;DHT22;9344;52.294;13.626;2022-08-19T11:16:35;23.70;99.90
18434;DHT22;9344;52.294;13.626;2022-08-19T11:19:05;23.70;99.90
18434;DHT22;9344;52.294;13.626;2022-08-19T11:21:36;23.70;99.90
18434;DHT22;9344;52.294;13.626;2022-08-19T11:24:05;23.70;99.90
18434;DHT22;9344;52.294;13.626;2022-08-19T11:26:35;23.70;99.90
18434;DHT22;9344;52.294;13.626;2022-08-19T11:29:03;23.80;99.90
18434;DHT22;9344;52.294;13.626;2022-08-19T11:31:33;23.80;99.90
18434;DHT22;9344;52.294;13.626;2022-08-19T11:34:03;23.80;99.90
18434;DHT22;9344;52.294;13.626;2022-08-19T11:36:31;23.90;99.90
18434;DHT22;9344;52.294;13.626;2022-08-19T11:38:57;23.90;99.90
18434;DHT22;9344;52.294;13.626;2022-08-19T11:41:25;23.90;99.90
18434;DHT22;9344;52.294;13.626;2022-08-19T11:43:54;23.90;99.90
18434;DHT22;9344;52.294;13.626;2022-08-19T11:46:22;24.00;99.90
18434;DHT22;9344;52.294;13.626;2022-08-19T11:48:49;23.90;99.90
18434;DHT22;9344;52.294;13.626;2022-08-19T11:51:19;23.90;99.90
18434;DHT22;9344;52.294;13.626;2022-08-19T11:53:46;24.00;99.90
18434;DHT22;9344;52.294;13.626;2022-08-19T11:56:13;24.00;99.90
18434;DHT22;9344;52.294;13.626;2022-08-19T11:58:40;24.00;99.90
18434;DHT22;9344;52.294;13.626;2022-08-19T12:01:09;24.00;99.90
18434;DHT22;9344;52.294;13.626;2022-08-19T12:03:36;24.00;99.90
18434;DHT22;9344;52.294;13.626;2022-08-19T12:06:05;24.10;99.90
18434;DHT22;9344;52.294;13.626;2022-08-19T12:08:31;24.10;99.90
18434;DHT22;9344;52.294;13.626;2022-08-19T12:10:58;24.10;99.90
18434;DHT22;9344;52.294;13.626;2022-08-19T12:13:26;24.10;99.90
18434;DHT22;9344;52.294;13.626;2022-08-19T12:15:53;24.10;99.90
18434;DHT22;9344;52.294;13.626;2022-08-19T12:18:20;24.10;99.90
18434;DHT22;9344;52.294;13.626;2022-08-19T12:20:50;24.10;99.90
18434;DHT22;9344;52.294;13.626;2022-08-19T12:23:17;24.10;99.90
18434;DHT22;9344;52.294;13.626;2022-08-19T12:25:46;24.20;99.90
18434;DHT22;9344;52.294;13.626;2022-08-19T12:28:15;24.20;99.90
18434;DHT22;9344;52.294;13.626;2022-08-19T12:30:42;24.20;99.90
18434;DHT22;9344;52.294;13.626;2022-08-19T12:33:08;24.20;99.90
18434;DHT22;9344;52.294;13.626;2022-08-19T12:35:39;24.20;99.90
18434;DHT22;9344;52.294;13.626;2022-08-19T12:38:06;24.20;99.90
18434;DHT22;9344;52.294;13.626;2022-08-19T12:40:32;24.20;99.90
18434;DHT22;9344;52.294;13.626;2022-08-19T12:42:59;24.10;99.90
18434;DHT22;9344;52.294;13.626;2022-08-19T12:45:25;24.20;99.90
18434;DHT22;9344;52.294;13.626;2022-08-19T12:47:52;24.20;99.90
18434;DHT22;9344;52.294;13.626;2022-08-19T12:50:19;24.20;99.90
18434;DHT22;9344;52.294;13.626;2022-08-19T12:52:48;24.30;99.90
18434;DHT22;9344;52.294;13.626;2022-08-19T12:55:14;24.30;99.90
18434;DHT22;9344;52.294;13.626;2022-08-19T12:57:42;24.20;99.90
18434;DHT22;9344;52.294;13.626;2022-08-19T13:00:11;24.20;99.90
18434;DHT22;9344;52.294;13.626;2022-08-19T13:02:40;24.20;99.90
18434;DHT22;9344;52.294;13.626;2022-08-19T13:05:08;24.20;99.90
18434;DHT22;9344;52.294;13.626;2022-08-19T13:07:37;24.20;99.90
18434;DHT22;9344;52.294;13.626;2022-08-19T13:10:06;24.20;99.90
18434;DHT22;9344;52.294;13.626;2022-08-19T13:12:33;24.20;99.90
18434;DHT22;9344;52.294;13.626;2022-08-19T13:15:00;24.10;99.90
18434;DHT22;9344;52.294;13.626;2022-08-19T13:17:27;24.20;99.90
18434;DHT22;9344;52.294;13.626;2022-08-19T13:19:53;24.10;99.90
18434;DHT22;9344;52.294;13.626;2022-08-19T13:22:20;24.00;99.90
18434;DHT22;9344;52.294;13.626;2022-08-19T13:24:46;24.00;99.90
18434;DHT22;9344;52.294;13.626;2022-08-19T13:27:14;24.00;99.90
18434;DHT22;9344;52.294;13.626;2022-08-19T13:29:41;23.80;99.90
18434;DHT22;9344;52.294;13.626;2022-08-19T13:32:26;23.80;99.90
18434;DHT22;9344;52.294;13.626;2022-08-19T13:35:10;23.70;99.90
18434;DHT22;9344;52.294;13.626;2022-08-19T13:37:37;23.80;99.90
18434;DHT22;9344;52.294;13.626;2022-08-19T13:40:12;23.80;99.90
18434;DHT22;9344;52.294;13.626;2022-08-19T13:42:42;23.70;99.90
18434;DHT22;9344;52.294;13.626;2022-08-19T13:45:13;23.80;99.90
18434;DHT22;9344;52.294;13.626;2022-08-19T13:47:40;23.80;99.90
18434;DHT22;9344;52.294;13.626;2022-08-19T13:50:09;23.80;99.90
18434;DHT22;9344;52.294;13.626;2022-08-19T13:52:36;23.80;99.90
18434;DHT22;9344;52.294;13.626;2022-08-19T13:55:03;23.80;99.90
18434;DHT22;9344;52.294;13.626;2022-08-19T13:57:29;23.90;99.90
18434;DHT22;9344;52.294;13.626;2022-08-19T13:59:59;23.90;99.90
18434;DHT22;9344;52.294;13.626;2022-08-19T14:02:25;23.90;99.90
18434;DHT22;9344;52.294;13.626;2022-08-19T14:04:52;24.00;99.90
18434;DHT22;9344;52.294;13.626;2022-08-19T14:07:19;24.10;99.90
18434;DHT22;9344;52.294;13.626;2022-08-19T14:09:48;24.10;99.90
18434;DHT22;9344;52.294;13.626;2022-08-19T14:12:18;24.20;99.90
18434;DHT22;9344;52.294;13.626;2022-08-19T14:14:45;24.20;99.90
18434;DHT22;9344;52.294;13.626;2022-08-19T14:17:13;24.20;99.90
18434;DHT22;9344;52.294;13.626;2022-08-19T14:19:39;24.20;99.90
18434;DHT22;9344;52.294;13.626;2022-08-19T14:22:06;24.20;99.90
18434;DHT22;9344;52.294;13.626;2022-08-19T14:24:32;24.20;99.90
18434;DHT22;9344;52.294;13.626;2022-08-19T14:26:59;24.10;99.90
18434;DHT22;9344;52.294;13.626;2022-08-19T14:29:25;24.00;99.90
18434;DHT22;9344;52.294;13.626;2022-08-19T14:31:54;24.10;99.90
18434;DHT22;9344;52.294;13.626;2022-08-19T14:34:22;24.00;99.90
18434;DHT22;9344;52.294;13.626;2022-08-19T14:36:49;24.00;99.90
18434;DHT22;9344;52.294;13.626;2022-08-19T14:39:15;24.00;99.90
18434;DHT22;9344;52.294;13.626;2022-08-19T14:41:42;24.00;99.90
18434;DHT22;9344;52.294;13.626;2022-08-19T14:44:10;24.00;99.90
18434;DHT22;9344;52.294;13.626;2022-08-19T14:46:38;23.90;99.90
18434;DHT22;9344;52.294;13.626;2022-08-19T14:49:05;23.90;99.90
18434;DHT22;9344;52.294;13.626;2022-08-19T14:51:34;24.00;99.90
18434;DHT22;9344;52.294;13.626;2022-08-19T14:54:00;24.00;99.90
18434;DHT22;9344;52.294;13.626;2022-08-19T14:56:28;24.00;99.90
18434;DHT22;9344;52.294;13.626;2022-08-19T14:58:55;24.10;99.90
18434;DHT22;9344;52.294;13.626;2022-08-19T15:01:25;24.10;99.90
18434;DHT22;9344;52.294;13.626;2022-08-19T15:03:52;24.10;99.90
18434;DHT22;9344;52.294;13.626;2022-08-19T15:06:19;24.20;99.90
18434;DHT22;9344;52.294;13.626;2022-08-19T15:08:48;24.10;99.90
18434;DHT22;9344;52.294;13.626;2022-08-19T15:11:17;24.10;99.90
18434;DHT22;9344;52.294;13.626;2022-08-19T15:13:46;24.90;99.90
18434;DHT22;9344;52.294;13.626;2022-08-19T15:16:13;24.00;99.90
18434;DHT22;9344;52.294;13.626;2022-08-19T15:18:41;24.00;99.90
18434;DHT22;9344;52.294;13.626;2022-08-19T15:21:10;22.40;99.90
18434;DHT22;9344;52.294;13.626;2022-08-19T15:23:37;23.90;99.90
18434;DHT22;9344;52.294;13.626;2022-08-19T15:26:06;24.00;99.90
18434;DHT22;9344;52.294;13.626;2022-08-19T15:28:34;23.90;99.90
18434;DHT22;9344;52.294;13.626;2022-08-19T15:31:01;23.80;99.90
18434;DHT22;9344;52.294;13.626;2022-08-19T15:33:27;23.70;99.90
18434;DHT22;9344;52.294;13.626;2022-08-19T15:35:54;23.70;99.90
18434;DHT22;9344;52.294;13.626;2022-08-19T15:38:22;23.70;99.90
18434;DHT22;9344;52.294;13.626;2022-08-19T15:40:51;23.60;99.90